createdAt,value
2019-01-26T00:02:19.206Z,1.70
2019-01-26T00:04:51.261Z,1.60
2019-01-26T00:07:20.467Z,1.60
2019-01-26T00:09:49.871Z,1.50
2019-01-26T00:12:19.167Z,1.60
2019-01-26T00:14:48.487Z,1.70
2019-01-26T00:17:17.712Z,1.60
2019-01-26T00:19:46.989Z,1.60
2019-01-26T00:22:16.219Z,1.60
2019-01-26T00:24:45.549Z,1.50
2019-01-26T00:27:14.793Z,1.50
2019-01-26T00:29:44.090Z,1.50
2019-01-26T00:32:13.276Z,1.60
2019-01-26T00:34:42.510Z,1.60
2019-01-26T00:37:11.712Z,1.60
2019-01-26T00:39:40.899Z,1.50
2019-01-26T00:42:10.144Z,1.50
2019-01-26T00:44:39.348Z,1.50
2019-01-26T00:47:08.564Z,1.50
2019-01-26T00:49:37.738Z,1.40
2019-01-26T00:52:06.958Z,1.50
2019-01-26T00:54:36.128Z,1.40
2019-01-26T00:57:05.471Z,1.40
2019-01-26T00:59:34.624Z,1.30
2019-01-26T01:02:03.869Z,1.40
2019-01-26T01:04:33.096Z,1.40
2019-01-26T01:07:02.246Z,1.40
2019-01-26T01:09:31.431Z,1.50
2019-01-26T01:12:00.689Z,1.50
2019-01-26T01:14:29.823Z,1.50
2019-01-26T01:16:59.008Z,1.50
2019-01-26T01:19:28.129Z,1.50
2019-01-26T01:21:57.337Z,1.50
2019-01-26T01:24:26.633Z,1.50
2019-01-26T01:26:55.899Z,1.50
2019-01-26T01:29:25.138Z,1.40
2019-01-26T01:31:54.304Z,1.40
2019-01-26T01:34:23.478Z,1.40
2019-01-26T01:36:52.832Z,1.40
2019-01-26T01:39:22.098Z,1.40
2019-01-26T01:41:53.133Z,1.40
2019-01-26T01:44:23.828Z,1.40
2019-01-26T01:46:54.185Z,1.30
2019-01-26T01:49:23.471Z,1.30
2019-01-26T01:51:55.816Z,1.20
2019-01-26T01:54:25.069Z,1.20
2019-01-26T01:56:54.377Z,1.20
2019-01-26T01:59:23.538Z,1.20
2019-01-26T02:01:54.325Z,1.10
2019-01-26T02:04:23.523Z,1.10
2019-01-26T02:06:59.895Z,1.10
2019-01-26T02:09:29.033Z,1.10
2019-01-26T02:11:58.268Z,1.10
2019-01-26T02:14:27.440Z,1.20
2019-01-26T02:17:15.688Z,1.10
2019-01-26T02:19:44.914Z,1.20
2019-01-26T02:22:14.176Z,1.30
2019-01-26T02:24:43.380Z,1.10
2019-01-26T02:27:12.700Z,1.10
2019-01-26T02:29:41.876Z,1.20
2019-01-26T02:32:11.113Z,1.20
2019-01-26T02:34:40.308Z,1.20
2019-01-26T02:37:09.527Z,1.10
2019-01-26T02:39:38.781Z,1.20
2019-01-26T02:42:08.397Z,1.20
2019-01-26T02:44:37.669Z,1.20
2019-01-26T02:47:06.845Z,1.00
2019-01-26T02:49:35.981Z,0.80
2019-01-26T02:52:05.191Z,0.80
2019-01-26T02:54:35.571Z,0.90
2019-01-26T02:57:04.827Z,1.00
2019-01-26T02:59:34.707Z,1.00
2019-01-26T03:02:04.340Z,0.90
2019-01-26T03:04:33.501Z,0.80
2019-01-26T03:07:02.763Z,0.90
2019-01-26T03:09:31.965Z,0.80
2019-01-26T03:12:01.238Z,0.80
2019-01-26T03:14:30.388Z,0.90
2019-01-26T03:17:05.918Z,1.00
2019-01-26T03:19:30.861Z,1.00
2019-01-26T03:22:00.013Z,1.00
2019-01-26T03:24:29.240Z,1.00
2019-01-26T03:26:58.404Z,1.10
2019-01-26T03:29:27.579Z,1.10
2019-01-26T03:31:56.802Z,1.10
2019-01-26T03:34:25.959Z,1.10
2019-01-26T03:36:55.384Z,1.20
2019-01-26T03:39:24.533Z,1.20
2019-01-26T03:41:53.840Z,1.20
2019-01-26T03:44:23.073Z,1.20
2019-01-26T03:46:52.199Z,1.30
2019-01-26T03:49:21.442Z,1.30
2019-01-26T03:51:50.618Z,1.30
2019-01-26T03:54:19.816Z,1.30
2019-01-26T03:56:50.093Z,1.30
2019-01-26T03:59:19.242Z,1.40
2019-01-26T04:01:48.555Z,1.50
2019-01-26T04:04:17.879Z,1.50
2019-01-26T04:06:47.008Z,1.50
2019-01-26T04:09:16.224Z,1.40
2019-01-26T04:11:45.464Z,1.50
2019-01-26T04:14:14.614Z,1.50
2019-01-26T04:16:43.839Z,1.60
2019-01-26T04:19:13.128Z,1.60
2019-01-26T04:21:42.386Z,1.60
2019-01-26T04:24:11.576Z,1.60
2019-01-26T04:26:40.719Z,1.60
2019-01-26T04:29:11.452Z,1.70
2019-01-26T04:31:40.821Z,1.70
2019-01-26T04:34:09.989Z,1.70
2019-01-26T04:36:39.141Z,1.60
2019-01-26T04:39:09.078Z,1.60
2019-01-26T04:41:38.226Z,1.60
2019-01-26T04:44:07.391Z,1.60
2019-01-26T04:46:36.560Z,1.70
2019-01-26T04:49:05.890Z,1.80
2019-01-26T04:51:34.991Z,1.70
2019-01-26T04:54:04.528Z,1.70
2019-01-26T04:56:33.675Z,1.70
2019-01-26T04:59:02.972Z,1.70
2019-01-26T05:01:32.187Z,1.70
2019-01-26T05:04:01.343Z,1.80
2019-01-26T05:06:30.486Z,1.70
2019-01-26T05:08:59.717Z,1.70
2019-01-26T05:11:28.932Z,1.80
2019-01-26T05:14:00.845Z,1.90
2019-01-26T05:16:30.050Z,1.90
2019-01-26T05:18:59.347Z,2.00
2019-01-26T05:21:28.548Z,2.00
2019-01-26T05:23:59.447Z,2.00
2019-01-26T05:26:28.681Z,2.10
2019-01-26T05:28:57.906Z,2.00
2019-01-26T05:31:27.236Z,1.90
2019-01-26T05:33:56.495Z,1.90
2019-01-26T05:36:25.635Z,2.00
2019-01-26T05:38:56.007Z,2.10
2019-01-26T05:41:25.143Z,2.10
2019-01-26T05:43:54.557Z,2.10
2019-01-26T05:46:23.659Z,2.10
2019-01-26T05:48:52.808Z,2.20
2019-01-26T05:51:22.076Z,2.10
2019-01-26T05:53:51.313Z,2.10
2019-01-26T05:56:20.690Z,2.20
2019-01-26T05:58:51.389Z,2.30
2019-01-26T06:01:20.537Z,2.30
2019-01-26T06:03:49.876Z,2.30
2019-01-26T06:06:19.124Z,2.30
2019-01-26T06:08:48.335Z,2.30
2019-01-26T06:11:17.493Z,2.40
2019-01-26T06:13:46.753Z,2.40
2019-01-26T06:16:16.120Z,2.30
2019-01-26T06:18:45.288Z,2.30
2019-01-26T06:21:14.527Z,2.40
2019-01-26T06:23:43.699Z,2.40
2019-01-26T06:26:12.850Z,2.40
2019-01-26T06:28:41.997Z,2.30
2019-01-26T06:31:11.135Z,2.40
2019-01-26T06:33:40.287Z,2.40
2019-01-26T06:36:09.453Z,2.50
2019-01-26T06:38:38.693Z,2.50
2019-01-26T06:41:07.835Z,2.50
2019-01-26T06:43:38.053Z,2.50
2019-01-26T06:46:07.228Z,2.60
2019-01-26T06:48:37.683Z,2.60
2019-01-26T06:51:06.927Z,2.60
2019-01-26T06:53:36.067Z,2.50
2019-01-26T06:56:05.224Z,2.60
2019-01-26T06:58:34.358Z,2.60
2019-01-26T07:01:03.552Z,2.60
2019-01-26T07:03:32.863Z,2.60
2019-01-26T07:06:24.207Z,2.70
2019-01-26T07:08:53.404Z,2.70
2019-01-26T07:11:22.564Z,2.70
2019-01-26T07:13:51.705Z,2.70
2019-01-26T07:16:23.010Z,2.70
2019-01-26T07:18:52.745Z,2.80
2019-01-26T07:21:21.928Z,2.90
2019-01-26T07:23:51.304Z,2.90
2019-01-26T07:26:20.472Z,2.90
2019-01-26T07:28:49.709Z,2.90
2019-01-26T07:31:18.967Z,2.90
2019-01-26T07:33:48.211Z,3.00
2019-01-26T07:36:17.389Z,2.90
2019-01-26T07:38:46.898Z,3.00
2019-01-26T07:41:16.154Z,3.00
2019-01-26T07:43:45.391Z,3.00
2019-01-26T07:46:14.657Z,3.00
2019-01-26T07:48:44.576Z,3.00
2019-01-26T07:51:13.782Z,3.00
2019-01-26T07:53:42.955Z,3.10
2019-01-26T07:56:12.163Z,3.10
2019-01-26T07:58:41.335Z,3.10
2019-01-26T08:01:10.553Z,3.10
2019-01-26T08:03:39.852Z,3.10
2019-01-26T08:06:08.983Z,3.00
2019-01-26T08:08:38.217Z,3.00
2019-01-26T08:11:07.556Z,3.00
2019-01-26T08:13:36.853Z,3.20
2019-01-26T08:16:06.372Z,3.10
2019-01-26T08:18:35.652Z,3.20
2019-01-26T08:21:04.893Z,3.30
2019-01-26T08:23:34.095Z,3.40
2019-01-26T08:26:03.265Z,3.40
2019-01-26T08:28:32.532Z,3.50
2019-01-26T08:31:03.257Z,3.50
2019-01-26T08:33:32.509Z,3.50
2019-01-26T08:36:04.921Z,3.50
2019-01-26T08:38:34.173Z,3.50
2019-01-26T08:41:03.342Z,3.60
2019-01-26T08:43:32.619Z,3.60
2019-01-26T08:46:03.233Z,3.60
2019-01-26T08:48:32.464Z,3.70
2019-01-26T08:51:01.777Z,3.70
2019-01-26T08:53:31.021Z,3.70
2019-01-26T08:56:00.261Z,3.70
2019-01-26T08:58:29.654Z,3.70
2019-01-26T09:00:58.879Z,3.80
2019-01-26T09:03:46.193Z,3.80
2019-01-26T09:06:28.766Z,4.00
2019-01-26T09:08:58.017Z,4.60
2019-01-26T09:11:27.185Z,4.60
2019-01-26T09:13:56.447Z,4.40
2019-01-26T09:16:25.776Z,4.40
2019-01-26T09:18:55.140Z,4.30
2019-01-26T09:21:24.444Z,4.30
2019-01-26T09:23:53.627Z,4.20
2019-01-26T09:26:22.936Z,4.20
2019-01-26T09:28:52.220Z,4.20
2019-01-26T09:31:21.515Z,4.30
2019-01-26T09:33:50.834Z,4.30
2019-01-26T09:36:20.115Z,4.30
2019-01-26T09:38:52.601Z,4.30
2019-01-26T09:41:21.870Z,4.30
2019-01-26T09:43:52.508Z,4.30
2019-01-26T09:46:21.709Z,4.30
2019-01-26T09:48:50.965Z,4.30
2019-01-26T09:51:20.221Z,4.30
2019-01-26T09:53:49.431Z,4.30
2019-01-26T09:56:18.580Z,4.40
2019-01-26T09:58:49.376Z,4.50
2019-01-26T10:01:18.659Z,4.50
2019-01-26T10:03:49.363Z,4.50
2019-01-26T10:06:18.745Z,4.60
2019-01-26T10:08:49.447Z,4.70
2019-01-26T10:11:18.695Z,4.80
2019-01-26T10:13:49.803Z,4.90
2019-01-26T10:16:20.099Z,4.90
2019-01-26T10:18:53.492Z,4.90
2019-01-26T10:21:20.363Z,4.90
2019-01-26T10:23:50.866Z,5.00
2019-01-26T10:26:20.208Z,5.10
2019-01-26T10:28:49.371Z,5.10
2019-01-26T10:31:18.676Z,5.20
2019-01-26T10:33:47.867Z,5.20
2019-01-26T10:36:45.196Z,5.20
2019-01-26T10:39:21.130Z,5.20
2019-01-26T10:42:27.720Z,5.20
2019-01-26T10:44:57.156Z,5.30
2019-01-26T10:47:29.388Z,5.30
2019-01-26T10:49:58.572Z,5.30
2019-01-26T10:52:28.743Z,5.40
2019-01-26T10:54:57.963Z,5.40
2019-01-26T10:57:27.177Z,5.40
2019-01-26T10:59:56.567Z,5.50
2019-01-26T11:02:25.735Z,5.60
2019-01-26T11:04:55.051Z,5.80
2019-01-26T11:07:24.283Z,5.90
2019-01-26T11:09:53.540Z,6.00
2019-01-26T11:12:22.753Z,6.10
2019-01-26T11:14:51.923Z,6.10
2019-01-26T11:17:21.153Z,6.20
2019-01-26T11:19:50.534Z,6.30
2019-01-26T11:22:19.783Z,6.50
2019-01-26T11:24:49.088Z,6.70
2019-01-26T11:27:18.420Z,6.80
2019-01-26T11:29:47.648Z,7.00
2019-01-26T11:32:16.852Z,7.20
2019-01-26T11:34:46.104Z,7.30
2019-01-26T11:37:16.370Z,7.30
2019-01-26T11:39:48.837Z,7.30
2019-01-26T11:42:17.977Z,7.40
2019-01-26T11:45:06.203Z,7.60
2019-01-26T11:47:35.428Z,7.70
2019-01-26T11:50:06.116Z,7.70
2019-01-26T11:52:35.376Z,7.70
2019-01-26T11:55:29.913Z,7.70
2019-01-26T11:57:59.688Z,7.50
2019-01-26T12:01:06.352Z,7.50
2019-01-26T12:03:54.598Z,7.40
2019-01-26T12:06:35.586Z,7.50
2019-01-26T12:09:07.893Z,7.60
2019-01-26T12:11:37.185Z,7.70
2019-01-26T12:14:06.784Z,7.70
2019-01-26T12:16:36.004Z,7.80
2019-01-26T12:19:07.052Z,7.90
2019-01-26T12:21:36.499Z,8.00
2019-01-26T12:24:08.504Z,8.10
2019-01-26T12:26:37.681Z,8.10
2019-01-26T12:29:07.066Z,8.10
2019-01-26T12:31:36.519Z,8.10
2019-01-26T12:34:07.148Z,8.10
2019-01-26T12:36:36.334Z,8.20
2019-01-26T12:39:09.458Z,8.30
2019-01-26T12:41:38.728Z,8.40
2019-01-26T12:44:07.913Z,8.50
2019-01-26T12:46:39.457Z,8.30
2019-01-26T12:49:08.835Z,8.20
2019-01-26T12:51:38.001Z,8.10
2019-01-26T12:54:09.056Z,8.10
2019-01-26T12:56:38.315Z,8.00
2019-01-26T12:59:10.549Z,8.00
2019-01-26T13:01:39.838Z,8.00
2019-01-26T13:04:09.054Z,8.00
2019-01-26T13:06:39.095Z,8.00
2019-01-26T13:09:10.438Z,7.90
2019-01-26T13:11:41.944Z,8.00
2019-01-26T13:14:11.239Z,8.10
2019-01-26T13:16:40.564Z,8.10
2019-01-26T13:19:09.873Z,8.10
2019-01-26T13:21:40.285Z,8.20
2019-01-26T13:24:10.962Z,8.20
2019-01-26T13:26:40.401Z,8.10
2019-01-26T13:29:09.691Z,8.00
2019-01-26T13:31:39.028Z,7.90
2019-01-26T13:34:08.348Z,7.80
2019-01-26T13:36:37.753Z,7.80
2019-01-26T13:39:09.648Z,7.70
2019-01-26T13:41:38.974Z,7.70
2019-01-26T13:44:10.318Z,7.80
2019-01-26T13:46:39.616Z,7.80
2019-01-26T13:49:09.164Z,7.70
2019-01-26T13:51:38.415Z,7.60
2019-01-26T13:54:10.743Z,7.60
2019-01-26T13:56:40.007Z,7.60
2019-01-26T13:59:09.358Z,7.60
2019-01-26T14:01:38.641Z,7.60
2019-01-26T14:04:10.527Z,7.60
2019-01-26T14:06:39.848Z,7.50
2019-01-26T14:09:10.588Z,7.60
2019-01-26T14:11:40.041Z,7.50
2019-01-26T14:14:12.402Z,7.50
2019-01-26T14:16:41.680Z,7.50
2019-01-26T14:19:10.959Z,7.40
2019-01-26T14:21:40.232Z,7.40
2019-01-26T14:24:09.858Z,7.30
2019-01-26T14:26:39.128Z,7.30
2019-01-26T14:29:10.713Z,7.20
2019-01-26T14:31:40.216Z,7.20
2019-01-26T14:34:13.666Z,7.20
2019-01-26T14:36:42.945Z,7.10
2019-01-26T14:39:12.473Z,7.00
2019-01-26T14:41:41.724Z,6.90
2019-01-26T15:04:49.189Z,6.80
2019-01-26T15:07:18.464Z,6.80
2019-01-26T15:35:34.553Z,6.50
2019-01-26T15:38:05.360Z,6.50
2019-01-26T15:40:34.586Z,6.50
2019-01-26T15:43:04.175Z,6.50
2019-01-26T15:45:36.184Z,6.50
2019-01-26T15:48:07.850Z,6.40
2019-01-26T15:50:37.314Z,6.40
2019-01-26T15:53:06.584Z,6.40
2019-01-26T15:55:35.894Z,6.40
2019-01-26T15:58:05.806Z,6.30
2019-01-26T16:00:37.462Z,6.30
2019-01-26T16:06:31.402Z,6.40
2019-01-26T16:09:00.628Z,6.30
2019-01-26T16:11:29.923Z,6.30
2019-01-26T16:13:59.234Z,6.20
2019-01-26T16:16:28.375Z,6.20
2019-01-26T16:18:57.676Z,6.30
2019-01-26T16:21:26.916Z,6.30
2019-01-26T16:23:56.152Z,6.30
2019-01-26T16:26:25.361Z,6.20
2019-01-26T16:28:54.776Z,6.20
2019-01-26T16:31:24.063Z,6.30
2019-01-26T16:33:53.349Z,6.20
2019-01-26T16:36:22.638Z,6.20
2019-01-26T16:38:53.329Z,6.20
2019-01-26T16:41:22.604Z,6.20
2019-01-26T16:43:51.790Z,6.20
2019-01-26T16:46:20.970Z,6.20
2019-01-26T16:48:50.650Z,6.20
2019-01-26T16:51:19.949Z,6.20
2019-01-26T16:53:49.304Z,6.30
2019-01-26T16:56:18.706Z,6.20
2019-01-26T16:58:47.974Z,6.20
2019-01-26T17:01:17.244Z,6.30
2019-01-26T17:03:46.470Z,6.20
2019-01-26T17:06:15.993Z,6.10
2019-01-26T17:08:45.279Z,6.00
2019-01-26T17:11:14.555Z,6.00
2019-01-26T17:13:43.864Z,6.00
2019-01-26T17:16:13.112Z,5.90
2019-01-26T17:18:46.104Z,6.00
2019-01-26T17:21:13.632Z,5.90
2019-01-26T17:23:42.841Z,5.90
2019-01-26T17:26:12.162Z,5.90
2019-01-26T17:28:41.457Z,5.80
2019-01-26T17:31:10.819Z,6.00
2019-01-26T17:33:40.109Z,5.80
2019-01-26T17:36:09.489Z,5.90
2019-01-26T17:38:38.716Z,5.80
2019-01-26T17:41:07.861Z,5.70
2019-01-26T17:43:37.085Z,5.60
2019-01-26T17:46:06.463Z,5.70
2019-01-26T17:48:35.629Z,5.80
2019-01-26T17:51:04.893Z,5.70
2019-01-26T17:53:34.093Z,5.70
2019-01-26T17:56:03.333Z,5.70
2019-01-26T17:58:32.588Z,5.60
2019-01-26T18:01:02.241Z,5.70
2019-01-26T18:03:31.490Z,5.60
2019-01-26T18:06:00.774Z,5.80
2019-01-26T18:08:29.924Z,5.80
2019-01-26T18:10:58.982Z,5.70
2019-01-26T18:13:28.144Z,5.70
2019-01-26T18:15:57.316Z,5.70
2019-01-26T18:18:27.636Z,5.60
2019-01-26T18:20:56.753Z,5.60
2019-01-26T18:23:33.076Z,5.60
2019-01-26T18:26:02.485Z,5.60
2019-01-26T18:28:31.730Z,5.60
2019-01-26T18:31:02.376Z,5.70
2019-01-26T18:33:31.629Z,5.80
2019-01-26T18:36:00.881Z,5.70
2019-01-26T18:38:30.107Z,5.60
2019-01-26T18:40:59.390Z,5.60
2019-01-26T18:43:28.839Z,5.60
2019-01-26T18:45:58.113Z,5.60
2019-01-26T18:48:27.441Z,5.60
2019-01-26T18:50:56.682Z,5.70
2019-01-26T18:53:25.997Z,5.60
2019-01-26T18:55:55.125Z,5.60
2019-01-26T18:58:24.487Z,5.60
2019-01-26T19:00:53.763Z,5.60
2019-01-26T19:03:43.211Z,5.50
2019-01-26T19:06:12.480Z,5.60
2019-01-26T19:08:41.639Z,5.70
2019-01-26T19:11:10.828Z,5.70
2019-01-26T19:13:40.043Z,5.80
2019-01-26T19:16:09.422Z,5.70
2019-01-26T19:18:38.602Z,5.80
2019-01-26T19:21:08.033Z,5.70
2019-01-26T19:23:37.308Z,5.70
2019-01-26T19:26:06.655Z,5.70
2019-01-26T19:28:36.026Z,5.70
2019-01-26T19:31:05.305Z,5.60
2019-01-26T19:33:34.700Z,5.60
2019-01-26T19:36:04.389Z,5.70
2019-01-26T19:38:33.606Z,5.70
2019-01-26T19:41:03.022Z,5.60
2019-01-26T19:43:32.260Z,5.70
2019-01-26T19:46:01.436Z,5.60
2019-01-26T19:48:32.173Z,5.60
2019-01-26T19:51:01.465Z,5.60
2019-01-26T19:53:32.315Z,5.60
2019-01-26T19:56:01.699Z,5.60
2019-01-26T19:58:30.880Z,5.50
2019-01-26T20:01:00.113Z,5.50
2019-01-26T20:03:29.316Z,5.60
2019-01-26T20:05:58.608Z,5.70
2019-01-26T20:08:27.940Z,5.70
2019-01-26T20:10:57.405Z,5.70
2019-01-26T20:13:26.618Z,5.70
2019-01-26T20:15:55.889Z,5.60
2019-01-26T20:18:25.107Z,5.60
2019-01-26T20:20:54.440Z,5.50
2019-01-26T20:23:23.767Z,5.50
2019-01-26T20:25:53.208Z,5.50
2019-01-26T20:28:25.320Z,5.40
2019-01-26T20:30:54.594Z,5.40
2019-01-26T20:33:23.776Z,5.50
2019-01-26T20:35:54.823Z,5.40
2019-01-26T20:38:24.064Z,5.40
2019-01-26T20:40:53.312Z,5.40
2019-01-26T20:43:22.536Z,5.40
2019-01-26T20:45:51.760Z,5.40
2019-01-26T20:48:21.011Z,5.30
2019-01-26T20:50:50.329Z,5.10
2019-01-26T20:53:19.520Z,5.10
2019-01-26T20:55:48.709Z,5.10
2019-01-26T20:58:17.985Z,5.00
2019-01-26T21:00:47.269Z,5.00
2019-01-26T21:03:16.496Z,5.00
2019-01-26T21:05:45.786Z,5.10
2019-01-26T21:08:15.078Z,5.00
2019-01-26T21:10:44.505Z,5.00
2019-01-26T21:13:16.450Z,4.90
2019-01-26T21:15:44.673Z,4.80
2019-01-26T21:18:13.877Z,4.80
2019-01-26T21:20:43.185Z,4.80
2019-01-26T21:23:13.536Z,4.80
2019-01-26T21:25:42.853Z,4.80
2019-01-26T21:28:12.292Z,4.80
2019-01-26T21:30:41.569Z,4.80
2019-01-26T21:33:10.843Z,4.90
2019-01-26T21:35:40.041Z,4.90
2019-01-26T21:38:09.377Z,4.80
2019-01-26T21:40:38.664Z,4.90
2019-01-26T21:43:07.933Z,4.90
2019-01-26T21:45:37.162Z,4.80
2019-01-26T21:48:06.362Z,4.80
2019-01-26T21:50:35.634Z,4.80
2019-01-26T21:53:04.937Z,4.90
2019-01-26T21:55:34.277Z,5.00
2019-01-26T21:58:03.497Z,4.80
2019-01-26T22:00:34.916Z,4.70
2019-01-26T22:03:05.042Z,4.80
2019-01-26T22:05:34.481Z,4.80
2019-01-26T22:08:04.022Z,4.70
2019-01-26T22:10:33.501Z,4.80
2019-01-26T22:13:02.729Z,4.80
2019-01-26T22:15:32.024Z,4.80
2019-01-26T22:18:01.213Z,4.80
2019-01-26T22:20:30.421Z,4.90
2019-01-26T22:22:59.757Z,4.90
2019-01-26T22:25:29.017Z,4.90
2019-01-26T22:27:58.692Z,4.90
2019-01-26T22:33:09.926Z,5.00
2019-01-26T22:35:39.067Z,5.00
2019-01-26T22:38:08.283Z,5.00
2019-01-26T22:40:37.990Z,5.00
2019-01-26T22:43:07.309Z,4.90
2019-01-26T22:45:36.629Z,4.90
2019-01-26T22:48:06.120Z,4.90
2019-01-26T22:50:35.377Z,4.90
2019-01-26T22:53:04.881Z,4.90
2019-01-26T22:55:34.036Z,4.90
2019-01-26T22:58:03.239Z,4.90
2019-01-26T23:00:52.585Z,4.90
2019-01-26T23:03:25.492Z,4.90
2019-01-26T23:06:24.316Z,4.80
2019-01-26T23:08:53.749Z,4.90
2019-01-26T23:11:40.972Z,4.90
2019-01-26T23:14:42.608Z,4.90
2019-01-26T23:17:51.918Z,4.90
2019-01-26T23:21:03.949Z,4.90
2019-01-26T23:24:09.130Z,4.80
2019-01-26T23:27:31.392Z,4.70
2019-01-26T23:30:21.601Z,4.60
2019-01-26T23:32:51.024Z,4.60
2019-01-26T23:35:20.213Z,4.60
2019-01-26T23:37:49.443Z,4.60
2019-01-26T23:40:18.583Z,4.40
2019-01-26T23:42:47.800Z,4.50
2019-01-26T23:45:17.089Z,4.50
2019-01-26T23:47:46.449Z,4.50
2019-01-26T23:50:15.815Z,4.60
2019-01-26T23:52:45.065Z,4.50
2019-01-26T23:55:14.603Z,4.40
2019-01-26T23:57:45.149Z,4.40
